| time (UTC) | temp C | wind direction | speed KPH | gust KPH | rain 1hr cm | rain 24hr cm | rain mn cm | humidity % | barometer mb |
| 20260507105958 | 7 | 330 | 3.2 | 11.3 | 0.00 | 1.19 | 0.20 | 83 | 1010.5 |
| 20260507104458 | 7 | 267 | 3.2 | 12.9 | 0.00 | 1.19 | 0.20 | 80 | 1010.4 |
| 20260507102958 | 7 | 273 | 1.6 | 8.0 | 0.00 | 1.19 | 0.20 | 75 | 1010.1 |
| 20260507101459 | 7 | 326 | 1.6 | 6.4 | 0.00 | 1.19 | 0.20 | 70 | 1010.0 |
| 20260507100001 | 7 | 244 | 1.6 | 4.8 | 0.00 | 1.19 | 0.20 | 66 | 1009.6 |
| 20260507094459 | 7 | 308 | 1.6 | 6.4 | 0.00 | 1.19 | 0.20 | 63 | 1009.7 |
| 20260507092959 | 7 | 304 | 0.0 | 1.6 | 0.00 | 1.19 | 0.20 | 62 | 1009.4 |
| 20260507091500 | 7 | 295 | 0.0 | 3.2 | 0.00 | 1.19 | 0.20 | 62 | 1009.3 |
| 20260507085958 | 7 | 295 | 0.0 | 4.8 | 0.00 | 1.19 | 0.20 | 62 | 1009.4 |
| 20260507084500 | 7 | 281 | 0.0 | 1.6 | 0.00 | 1.19 | 0.20 | 64 | 1009.5 |
| 20260507082959 | 8 | 281 | 0.0 | 3.2 | 0.00 | 1.19 | 0.20 | 65 | 1009.6 |
| 20260507081458 | 8 | 281 | 1.6 | 6.4 | 0.00 | 1.19 | 0.20 | 66 | 1009.7 |
| 20260507075958 | 8 | 281 | 1.6 | 4.8 | 0.00 | 1.19 | 0.20 | 69 | 1009.7 |
| 20260507074458 | 8 | 276 | 3.2 | 6.4 | 0.00 | 1.19 | 0.20 | 69 | 1009.6 |
| 20260507072959 | 8 | 207 | 1.6 | 4.8 | 0.05 | 1.19 | 0.20 | 70 | 1009.8 |
| 20260507071458 | 8 | 265 | 1.6 | 8.0 | 0.08 | 1.19 | 0.20 | 72 | 1010.0 |
| 20260507065959 | 8 | 245 | 1.6 | 4.8 | 0.13 | 1.19 | 0.20 | 74 | 1010.2 |
| 20260507064459 | 8 | 266 | 1.6 | 6.4 | 0.20 | 1.19 | 0.20 | 77 | 1010.0 |
| 20260507061458 | 8 | 276 | 1.6 | 9.7 | 0.13 | 1.12 | 0.13 | 83 | 1009.7 |
| 20260507055959 | 8 | 285 | 1.6 | 11.3 | 0.08 | 1.07 | 0.08 | 85 | 1010.0 |
| 20260507052958 | 10 | 279 | 3.2 | 14.5 | 0.00 | 0.99 | 0.00 | 83 | 1009.8 |
| 20260507051458 | 10 | 269 | 3.2 | 8.0 | 0.00 | 0.99 | 0.00 | 83 | 1009.4 |
| 20260507050000 | 10 | 272 | 3.2 | 8.0 | 0.00 | 0.99 | 0.00 | 83 | 1009.2 |
| 20260507044500 | 10 | 257 | 3.2 | 9.7 | 0.00 | 0.99 | 0.00 | 83 | 1008.8 |
| 20260507043000 | 10 | 266 | 1.6 | 6.4 | 0.00 | 0.99 | 0.00 | 83 | 1009.0 |
| 20260507040006 | 10 | 261 | 4.8 | 14.5 | 0.00 | 0.99 | 0.00 | 84 | 1009.2 |
| 20260507034503 | 10 | 285 | 4.8 | 12.9 | 0.00 | 0.99 | 0.99 | 85 | 1009.3 |
| 20260507033003 | 10 | 240 | 3.2 | 11.3 | 0.00 | 0.99 | 0.99 | 84 | 1008.9 |
| 20260507031503 | 10 | 251 | 4.8 | 9.7 | 0.00 | 0.99 | 0.99 | 84 | 1008.9 |
| 20260507030004 | 11 | 334 | 3.2 | 11.3 | 0.00 | 0.99 | 0.99 | 82 | 1008.9 |
| 20260507024502 | 11 | 67 | 3.2 | 8.0 | 0.00 | 0.99 | 0.99 | 77 | 1009.1 |
| 20260507023003 | 11 | 295 | 3.2 | 11.3 | 0.00 | 0.99 | 0.99 | 77 | 1009.0 |
| 20260507021503 | 11 | 278 | 4.8 | 11.3 | 0.00 | 0.99 | 0.99 | 75 | 1009.1 |
| 20260507014502 | 12 | 275 | 1.6 | 12.9 | 0.03 | 0.99 | 0.99 | 70 | 1008.9 |
| 20260507013001 | 13 | 236 | 3.2 | 12.9 | 0.05 | 0.99 | 0.99 | 68 | 1008.7 |
| 20260507011501 | 15 | 6 | 6.4 | 14.5 | 0.18 | 0.99 | 0.99 | 45 | 1008.5 |
| 20260507010002 | 15 | 294 | 6.4 | 11.3 | 0.61 | 0.99 | 0.99 | 47 | 1008.3 |
| 20260507004501 | 15 | 308 | 4.8 | 12.9 | 0.58 | 0.97 | 0.97 | 51 | 1008.0 |
| 20260507001501 | 16 | 297 | 6.4 | 20.9 | 0.43 | 0.81 | 0.81 | 54 | 1007.8 |
| 20260506233001 | 16 | 295 | 0.0 | 1.6 | 0.00 | 0.38 | 0.38 | 56 | 1007.3 |
| 20260506231502 | 16 | 295 | 1.6 | 3.2 | 0.00 | 0.38 | 0.38 | 56 | 1007.2 |
| 20260506230002 | 16 | 296 | 1.6 | 6.4 | 0.00 | 0.38 | 0.38 | 56 | 1007.3 |
| 20260506224500 | 16 | 296 | 3.2 | 11.3 | 0.00 | 0.38 | 0.38 | 55 | 1007.1 |
| 20260506223001 | 16 | 360 | 3.2 | 6.4 | 0.00 | 0.38 | 0.38 | 49 | 1007.0 |
| 20260506221501 | 16 | 310 | 3.2 | 8.0 | 0.00 | 0.38 | 0.38 | 45 | 1007.2 |
| 20260506220001 | 16 | 291 | 3.2 | 9.7 | 0.00 | 0.38 | 0.38 | 39 | 1007.1 |
| 20260506214501 | 16 | 284 | 3.2 | 9.7 | 0.00 | 0.38 | 0.38 | 34 | 1006.9 |
| 20260506213002 | 15 | 278 | 3.2 | 8.0 | 0.00 | 0.38 | 0.38 | 37 | 1006.7 |
| 20260506211502 | 15 | 290 | 3.2 | 11.3 | 0.00 | 0.38 | 0.38 | 37 | 1006.7 |
| 20260506210002 | 15 | 277 | 6.4 | 14.5 | 0.00 | 0.38 | 0.38 | 37 | 1006.7 |
| 20260506203001 | 15 | 329 | 8.0 | 19.3 | 0.00 | 0.38 | 0.38 | 35 | 1006.5 |
| 20260506201501 | 15 | 284 | 4.8 | 11.3 | 0.00 | 0.38 | 0.38 | 35 | 1006.3 |
| 20260506200002 | 15 | 285 | 3.2 | 9.7 | 0.00 | 0.38 | 0.38 | 35 | 1006.6 |
| 20260506194500 | 15 | 338 | 4.8 | 12.9 | 0.00 | 0.38 | 0.38 | 37 | 1006.8 |
| 20260506193000 | 15 | 359 | 4.8 | 9.7 | 0.03 | 0.38 | 0.38 | 38 | 1006.9 |
| 20260506191500 | 15 | 301 | 6.4 | 14.5 | 0.05 | 0.38 | 0.38 | 40 | 1007.1 |
| 20260506185959 | 15 | 225 | 6.4 | 14.5 | 0.05 | 0.38 | 0.38 | 43 | 1007.2 |
| 20260506184500 | 15 | 293 | 6.4 | 16.1 | 0.05 | 0.38 | 0.38 | 47 | 1007.3 |
| 20260506183000 | 15 | 333 | 4.8 | 16.1 | 0.05 | 0.36 | 0.36 | 50 | 1007.3 |
| 20260506180000 | 15 | 321 | 6.4 | 16.1 | 0.05 | 0.33 | 0.33 | 55 | 1007.4 |
| 20260506174500 | 15 | 7 | 6.4 | 19.3 | 0.08 | 0.33 | 0.33 | 56 | 1007.5 |
| 20260506173001 | 15 | 259 | 4.8 | 11.3 | 0.08 | 0.30 | 0.30 | 56 | 1007.6 |
| 20260506171500 | 15 | 301 | 6.4 | 17.7 | 0.08 | 0.28 | 0.28 | 56 | 1007.8 |
| 20260506170000 | 15 | 351 | 3.2 | 12.9 | 0.13 | 0.28 | 0.28 | 58 | 1007.9 |
| 20260506162959 | 15 | 96 | 3.2 | 8.0 | 0.15 | 0.23 | 0.23 | 66 | 1007.5 |
| 20260506161500 | 15 | 111 | 3.2 | 9.7 | 0.15 | 0.20 | 0.20 | 67 | 1008.2 |
| 20260506160000 | 15 | 252 | 3.2 | 9.7 | 0.10 | 0.15 | 0.15 | 73 | 1008.9 |
| 20260506154459 | 15 | 193 | 4.8 | 11.3 | 0.13 | 0.13 | 0.13 | 77 | 1009.0 |
| 20260506151500 | 16 | 340 | 3.2 | 14.5 | 0.05 | 0.05 | 0.05 | 83 | 1008.8 |
| 20260506150001 | 16 | 359 | 3.2 | 6.4 | 0.05 | 0.05 | 0.05 | 85 | 1008.9 |
| 20260506144500 | 16 | 64 | 4.8 | 12.9 | 0.00 | 0.00 | 0.00 | 84 | 1008.9 |
| 20260506143000 | 17 | 269 | 6.4 | 14.5 | 0.00 | 0.00 | 0.00 | 81 | 1009.1 |
| 20260506141501 | 17 | 304 | 8.0 | 17.7 | 0.00 | 0.00 | 0.00 | 79 | 1008.8 |
| 20260506140001 | 17 | 330 | 4.8 | 14.5 | 0.00 | 0.00 | 0.00 | 81 | 1008.8 |
| 20260506134500 | 17 | 300 | 4.8 | 16.1 | 0.00 | 0.00 | 0.00 | 80 | 1008.9 |
| 20260506132959 | 17 | 313 | 4.8 | 16.1 | 0.00 | 0.00 | 0.00 | 80 | 1008.9 |
| 20260506131501 | 17 | 319 | 6.4 | 16.1 | 0.00 | 0.00 | 0.00 | 80 | 1009.1 |
| 20260506130001 | 17 | 323 | 4.8 | 16.1 | 0.00 | 0.00 | 0.00 | 80 | 1009.2 |
| 20260506124500 | 17 | 316 | 4.8 | 16.1 | 0.00 | 0.00 | 0.00 | 81 | 1009.2 |
| 20260506122959 | 17 | 309 | 3.2 | 9.7 | 0.00 | 0.00 | 0.00 | 81 | 1008.8 |
| 20260506115958 | 16 | 97 | 3.2 | 8.0 | 0.00 | 0.00 | 0.00 | 82 | 1009.0 |
| 20260506114459 | 16 | 110 | 3.2 | 12.9 | 0.00 | 0.00 | 0.00 | 82 | 1008.9 |
| 20260506112959 | 16 | 127 | 3.2 | 12.9 | 0.00 | 0.00 | 0.00 | 82 | 1009.0 |
| 20260506111459 | 16 | 158 | 4.8 | 9.7 | 0.00 | 0.00 | 0.00 | 82 | 1009.0 |